Create Tblcommutelog Verified Points Advance Search
| # | Trip ID | Id Commuter | Trip Date | Trip Num | Current Lat | Current Lng | Delta Distance | Current Time | Activity | Activity Confidence | Current Speed | |
|---|---|---|---|---|---|---|---|---|---|---|---|---|
| 69961 | 250625_783292_16651014_1606 | 783292 | (not set) | (not set) | 38.885481823026 | -77.006020739709 | 9.4131 | 2025-06-25 21:11:45.449 | in_vehicle | 100 | -0.44703925898772 | |
| 69962 | 250625_761648_16628470_1706 | 761648 | (not set) | (not set) | 38.910244948369 | -77.00176465035 | 0.8761 | 2025-06-25 21:11:45.535 | in_vehicle | 100 | 2.2530778652981 | |
| 69963 | 250625_784904_16652945_1607 | 784904 | (not set) | (not set) | 39.150508583742 | -76.777372304179 | 16.6459 | 2025-06-25 21:11:46.46 | in_vehicle | 100 | 10.791527711964 | |
| 69964 | 250625_785147_16653236_1638 | 785147 | (not set) | (not set) | 38.975112266667 | -77.688979383333 | 16.8735 | 2025-06-25 21:11:46.591 | still | 33 | 10.165672749381 | |
| 69965 | 250625_786711_16655088_1638 | 786711 | (not set) | (not set) | 39.08716783661 | -76.706178181898 | 21.617 | 2025-06-25 21:11:47.289 | in_vehicle | 100 | -0.44703925898772 | |
| 69966 | 250625_785403_16653539_1705 | 785403 | (not set) | (not set) | 38.9267121 | -77.0592539 | 1.0772 | 2025-06-25 21:11:48.177 | on_bicycle | 100 | 2.7090579094656 | |
| 69967 | 250625_768637_16635615_1657 | 768637 | (not set) | (not set) | 38.893010484429 | -77.000642446781 | 0.5955 | 2025-06-25 21:11:48.383 | on_foot | 100 | 0.52750632560551 | |
| 69968 | 250625_779005_16646666_1711 | 779005 | (not set) | (not set) | 38.8845904 | -77.022814 | 0 | 2025-06-25 21:11:48.92 | walking | 100 | 0.64373653294232 | |
| 69969 | 250625_669170_16518531_1617 | 669170 | (not set) | (not set) | 39.173669292162 | -77.270699745603 | 26.0057 | 2025-06-25 21:11:51.516 | in_vehicle | 100 | 2.9683406796785 | |
| 69970 | 250625_779005_16646666_1711 | 779005 | (not set) | (not set) | 38.8846323 | -77.0222289 | 0.0701 | 2025-06-25 21:11:51.71 | walking | 100 | 0.63479574776257 | |
| 69971 | 250625_783558_16651284_1650 | 783558 | (not set) | (not set) | 38.941351437284 | -77.026291661757 | 3.5592 | 2025-06-25 21:11:53.317 | still | 33 | 2.2843706134273 | |
| 69972 | 250625_781975_16654380_1637 | 781975 | (not set) | (not set) | 38.815367885347 | -77.138919423018 | 11.0025 | 2025-06-25 21:11:53.37 | in_vehicle | 100 | 14.139851761782 | |
| 69973 | 250625_669170_16518531_1617 | 669170 | (not set) | (not set) | 39.171983394932 | -77.268698420617 | 25.8474 | 2025-06-25 21:11:53.747 | in_vehicle | 100 | 9.0033706760128 | |
| 69974 | 250625_786711_16655088_1638 | 786711 | (not set) | (not set) | 39.087202980404 | -76.705991282794 | 22.4851 | 2025-06-25 21:11:53.824 | in_vehicle | 100 | -0.44703925898772 | |
| 69975 | 250625_754080_16652102_1705 | 754080 | (not set) | (not set) | 38.901314598023 | -77.040396196648 | 0 | 2025-06-25 21:11:54.87 | on_foot | 100 | -0.44703925898772 | |
| 69976 | 250625_783758_16651529_1647 | 783758 | (not set) | (not set) | 38.878644630664 | -77.262269567339 | 6.0112 | 2025-06-25 21:11:55.164 | in_vehicle | 100 | 10.590360045419 | |
| 69977 | 250625_785674_6441454_1605 | 785674 | (not set) | (not set) | 39.430366362598 | -77.420288897457 | 36.5793 | 2025-06-25 21:11:55.27 | in_vehicle | 100 | 3.8892415531932 | |
| 69978 | 250625_772581_16651719_1644 | 772581 | (not set) | (not set) | 38.909099562465 | -76.894393659644 | 8.2026 | 2025-06-25 21:11:55.394 | in_vehicle | 100 | 5.3063560041843 | |
| 69979 | 250625_779005_16646666_1711 | 779005 | (not set) | (not set) | 38.8846697 | -77.02163 | 0.0701 | 2025-06-25 21:11:55.996 | walking | 100 | 0.62138456999294 | |
| 69980 | 250625_784904_16652945_1607 | 784904 | (not set) | (not set) | 39.152845840939 | -76.775326393884 | 16.8411 | 2025-06-25 21:11:56.233 | in_vehicle | 100 | 10.983754593328 |